Aérodrome :
LOGIN :

S'inscrire | Disclaimer

   EN    FR    IT 

 










Légende :    VFR   VFR Marginal   IFR   IFR Intensif   IFR Très Intensif
Visi : 
Plafond : 
>= 8 km
>= 3000ft
5 à 8 km
1000 à 3000 ft
1500m à 5 km
500 à 1000 ft
800 à 1500m
200 à 500 ft
< 800m
< 200 ft
Symboles :   Orages  Brouillard  Fortes neiges  Fortes précipitations  Vent > 20 kt
SIGMETs :   Divers  Orages  Givrage  Turbulence  Onde Orograph.  Cendres Volcan.







- Altitude de l'aérodrome : 36 ft
- Code IATA : LTQ
- Voir les cartes d'approche


LFAT - Le Touquet

DERNIER METAR :
  • 100400Z AUTO 31011KT CAVOK 09/06 Q1024

METARs EXPIRÉS :
  • 100330Z AUTO 31011KT 9999 FEW020 BKN068 09/06 Q1024
  • 100300Z AUTO 31012KT 9999 SCT022 BKN027 BKN040 10/06 Q1024
  • 100230Z AUTO 31012KT 270V330 9999 BKN023 BKN034 BKN042 10/06 Q1023
  • 100200Z AUTO 30010KT 9999 FEW024 BKN045 09/05 Q1023
  • 100130Z AUTO 30010KT 9999 FEW020 SCT025 09/05 Q1023

Prévision TAF périmée.
ATIS : +33 3 21 06 62 84
Pas de NOTAMs connus pour ce terrain.



MET'MAP, la Météo Aéronautique d'un coup d'oeil ! - Copyright ORBIFLY Décembre 2007 - Disclaimer

ORBIFLY MET'MAP TEAM :

Programmation & Développement : Alexandra Zaïnal
Conception & Développement : Baudouin d'Aumeries
Co-Programmation & Développement : Marc-Olivier Méhu
Soutien technique & logistique : Manuel Goepfert

Contact : metmap@orbifly.com




SOURCES & CREDITS :

   NOAA